Bartelso, Illinois
Current Conditions -  °F | °C
As of 8:15 PM on Saturday 22 Nov 2014 (Local Time) from KENL Reporting Station
Light Rain Light Rain  
Wind Chill: 11°   Ceiling: 9000
Heat Index: 11°   Visibility: 10mi
Dew Point:   Wind: 7mph
Humidity: 77%   Direction: 160°SSE
Pressure: 29.96"   Gusts: NA
Location:  38.54°N, 89.47°W
Report Text: KENL 230215Z AUTO 16006KT 10SM -RA SCT070 OVC090 11/07 A2996 RMK AO2 T01100071
Loading
Personal Weather Stations






























Interactive Weather Map New forecast layout! Learn more

10-Day Weather Forecast

Advertisements
Track Severe Weather on mobile